Time;durP1;ratioP1;P1;durP2;ratioP2;P2;SDS_P1;SDS_P2;PMS_P1;PMS_P2;Temp;Humidity;BMP_temperature;BMP_pressure;BME280_temperature;BME280_humidity;BME280_pressure;Samples;Min_cycle;Max_cycle;Signal;HPM_P1;HPM_P2
2023/04/03 00:00:40;;;;;;;0.95;0.60;;;21.30;70.80;;;;;;5013919;28;20251;-54
2023/04/03 00:03:07;;;;;;;0.80;0.60;;;21.40;70.90;;;;;;5016999;28;20201;-49
2023/04/03 00:05:34;;;;;;;2.10;0.80;;;21.30;70.80;;;;;;5017667;28;20200;-49
2023/04/03 00:08:01;;;;;;;1.02;0.70;;;21.30;70.80;;;;;;5022647;28;20283;-50
2023/04/03 00:10:28;;;;;;;0.90;0.70;;;21.30;70.80;;;;;;5013104;28;20602;-54
2023/04/03 00:12:56;;;;;;;0.90;0.70;;;21.30;70.90;;;;;;5014647;28;20612;-47
2023/04/03 00:15:23;;;;;;;0.90;0.60;;;21.30;70.90;;;;;;5025642;28;20204;-46
2023/04/03 00:17:49;;;;;;;0.98;0.70;;;21.30;70.90;;;;;;5013321;28;20259;-48
2023/04/03 00:20:16;;;;;;;1.10;0.70;;;21.30;70.80;;;;;;5012875;28;20204;-50
2023/04/03 00:22:43;;;;;;;2.00;0.70;;;21.30;70.80;;;;;;5010363;28;20275;-48
2023/04/03 00:25:10;;;;;;;1.17;1.08;;;21.30;70.80;;;;;;5015977;28;20647;-50
2023/04/03 00:27:37;;;;;;;0.95;0.70;;;21.30;70.80;;;;;;5016402;28;20200;-54
2023/04/03 00:30:07;;;;;;;1.25;0.70;;;21.30;71.60;;;;;;5022798;28;20713;-48
2023/04/03 00:32:34;;;;;;;0.90;0.70;;;21.30;70.80;;;;;;5014146;28;20196;-51
2023/04/03 00:35:01;;;;;;;1.00;0.80;;;21.20;70.80;;;;;;5011870;28;20197;-47
2023/04/03 00:37:28;;;;;;;0.80;0.60;;;21.20;70.80;;;;;;5014594;28;20201;-50
2023/04/03 00:39:54;;;;;;;1.23;0.80;;;21.30;70.90;;;;;;5010907;28;20211;-49
2023/04/03 00:42:21;;;;;;;1.25;0.82;;;21.20;70.70;;;;;;5012739;28;20250;-50
2023/04/03 00:45:23;;;;;;;0.90;0.70;;;21.20;70.80;;;;;;5011436;28;20197;-46
2023/04/03 00:47:51;;;;;;;0.90;0.70;;;21.20;70.80;;;;;;5019039;28;20203;-52
2023/04/03 00:50:18;;;;;;;1.70;0.80;;;21.20;70.80;;;;;;5010195;28;20684;-46
2023/04/03 00:52:48;;;;;;;1.10;0.85;;;21.20;70.80;;;;;;5010907;28;20565;-45
2023/04/03 00:55:16;;;;;;;2.40;0.95;;;21.20;70.80;;;;;;5015870;28;20272;-51
2023/04/03 00:57:43;;;;;;;1.00;0.65;;;21.20;70.90;;;;;;5020516;28;20200;-51
2023/04/03 01:00:14;;;;;;;0.85;0.70;;;21.20;70.90;;;;;;5028640;28;20204;-52
2023/04/03 01:02:42;;;;;;;1.00;0.88;;;21.20;70.80;;;;;;5018645;28;20207;-48
2023/04/03 01:05:09;;;;;;;0.90;0.60;;;21.20;70.90;;;;;;5024721;28;20582;-45
2023/04/03 01:07:36;;;;;;;0.90;0.70;;;21.20;70.80;;;;;;5024462;28;20207;-46
2023/04/03 01:10:06;;;;;;;1.35;0.77;;;21.20;70.90;;;;;;5014449;28;20271;-47
2023/04/03 01:12:35;;;;;;;0.88;0.65;;;21.20;70.90;;;;;;5027814;28;20204;-49
2023/04/03 01:15:05;;;;;;;1.45;0.82;;;21.20;70.90;;;;;;5033133;28;20565;-46
2023/04/03 01:17:35;;;;;;;0.88;0.65;;;21.20;70.90;;;;;;5028768;28;20250;-47
2023/04/03 01:20:47;;;;;;;0.93;0.60;;;21.20;70.90;;;;;;5014299;28;20197;-45
2023/04/03 01:23:26;;;;;;;0.85;0.70;;;21.20;71.00;;;;;;5019194;28;20572;-52
2023/04/03 01:25:54;;;;;;;3.38;0.90;;;21.10;70.90;;;;;;5013968;28;20201;-53
2023/04/03 01:28:23;;;;;;;2.83;0.90;;;21.20;71.00;;;;;;5016706;28;20279;-48
2023/04/03 01:30:57;;;;;;;1.38;0.80;;;21.20;70.90;;;;;;5020750;28;20227;-54
2023/04/03 01:33:25;;;;;;;0.88;0.73;;;21.20;70.90;;;;;;5027283;28;20208;-54
2023/04/03 01:35:52;;;;;;;0.90;0.80;;;21.10;70.90;;;;;;5022807;28;20192;-46
2023/04/03 01:38:19;;;;;;;0.90;0.70;;;21.10;70.90;;;;;;5021542;28;20677;-54
2023/04/03 01:40:45;;;;;;;1.33;0.60;;;21.10;70.90;;;;;;5014861;28;20201;-48
2023/04/03 01:43:12;;;;;;;0.90;0.70;;;21.10;70.90;;;;;;5028638;28;20291;-47
2023/04/03 01:45:39;;;;;;;1.20;0.70;;;21.10;70.90;;;;;;5021727;28;20193;-49
2023/04/03 01:48:06;;;;;;;0.98;0.70;;;21.10;70.90;;;;;;5028439;28;20192;-48
2023/04/03 01:50:34;;;;;;;1.08;0.80;;;21.10;70.90;;;;;;5022154;28;20220;-51
2023/04/03 01:53:01;;;;;;;1.10;0.85;;;21.10;71.00;;;;;;5020823;28;20208;-53
2023/04/03 01:55:27;;;;;;;0.90;0.70;;;21.10;71.00;;;;;;5026350;28;20588;-49
2023/04/03 01:57:54;;;;;;;1.00;0.70;;;21.10;71.20;;;;;;5025390;28;20250;-47
2023/04/03 02:00:21;;;;;;;0.90;0.70;;;21.10;71.20;;;;;;5031481;28;20234;-50
2023/04/03 02:02:48;;;;;;;1.13;0.70;;;21.10;71.20;;;;;;5015868;28;20205;-48
2023/04/03 02:05:15;;;;;;;0.90;0.65;;;21.10;71.20;;;;;;5016038;28;20193;-54
2023/04/03 02:07:43;;;;;;;0.93;0.80;;;21.10;71.20;;;;;;5015200;28;20201;-47
2023/04/03 02:10:10;;;;;;;0.80;0.70;;;21.10;71.20;;;;;;5021469;28;20558;-56
2023/04/03 02:12:37;;;;;;;1.20;0.77;;;21.10;71.20;;;;;;5027481;28;20264;-51
2023/04/03 02:15:04;;;;;;;1.10;0.80;;;21.10;71.20;;;;;;5030144;28;20196;-51
2023/04/03 02:17:31;;;;;;;1.63;0.82;;;21.10;71.20;;;;;;5024071;28;20378;-51
2023/04/03 02:19:57;;;;;;;0.90;0.70;;;21.10;71.20;;;;;;5016204;28;20207;-54
2023/04/03 02:22:24;;;;;;;1.57;0.80;;;21.10;71.20;;;;;;5026156;28;20581;-49
2023/04/03 02:24:52;;;;;;;1.00;0.80;;;21.10;71.30;;;;;;5026395;28;20454;-54
2023/04/03 02:27:19;;;;;;;0.90;0.77;;;21.10;71.30;;;;;;5025252;28;20200;-57
2023/04/03 02:29:46;;;;;;;1.20;0.63;;;21.10;71.20;;;;;;5022471;28;20227;-46
2023/04/03 02:32:12;;;;;;;1.20;0.85;;;21.10;71.20;;;;;;5025154;28;20207;-48
2023/04/03 02:34:39;;;;;;;1.20;0.70;;;21.10;71.20;;;;;;5026305;28;20200;-52
2023/04/03 02:37:06;;;;;;;0.80;0.60;;;21.10;71.30;;;;;;5028850;28;20200;-49
2023/04/03 02:39:33;;;;;;;0.90;0.70;;;21.00;71.20;;;;;;5018579;28;20251;-47
2023/04/03 02:42:01;;;;;;;1.05;0.73;;;21.00;71.10;;;;;;5019814;28;20271;-50
2023/04/03 02:44:27;;;;;;;0.82;0.60;;;21.10;71.30;;;;;;5018910;28;20208;-50
2023/04/03 02:46:54;;;;;;;1.02;0.80;;;21.10;71.30;;;;;;5022027;28;20375;-52
2023/04/03 02:49:21;;;;;;;1.00;0.60;;;21.10;71.20;;;;;;5022166;28;20228;-47
2023/04/03 02:51:47;;;;;;;1.00;0.80;;;21.00;71.10;;;;;;5026950;28;20204;-52
2023/04/03 02:54:14;;;;;;;1.13;0.77;;;21.00;71.20;;;;;;5017202;28;20391;-54
2023/04/03 02:56:41;;;;;;;0.90;0.70;;;21.00;71.20;;;;;;5019244;28;20206;-47
2023/04/03 02:59:09;;;;;;;0.90;0.70;;;21.00;71.20;;;;;;5016758;28;20203;-48
2023/04/03 03:01:36;;;;;;;1.10;0.70;;;21.00;71.20;;;;;;5014360;28;20193;-48
2023/04/03 03:04:03;;;;;;;1.00;0.70;;;21.00;71.20;;;;;;5011548;28;20207;-47
2023/04/03 03:06:30;;;;;;;1.25;0.80;;;21.00;71.30;;;;;;5011706;28;20192;-51
2023/04/03 03:08:57;;;;;;;1.00;0.70;;;21.00;71.20;;;;;;5010113;28;20227;-52
2023/04/03 03:11:23;;;;;;;0.80;0.70;;;21.00;71.30;;;;;;5020336;28;20223;-47
2023/04/03 03:13:50;;;;;;;0.80;0.70;;;21.00;71.40;;;;;;5011155;28;20239;-50
2023/04/03 03:16:18;;;;;;;0.80;0.60;;;21.00;71.40;;;;;;5012558;28;20226;-48
2023/04/03 03:18:45;;;;;;;0.90;0.70;;;21.00;71.40;;;;;;5019489;28;20208;-47
2023/04/03 03:21:12;;;;;;;0.82;0.60;;;21.00;71.40;;;;;;5021946;28;20669;-52
2023/04/03 03:23:39;;;;;;;1.38;0.65;;;21.00;71.50;;;;;;5014543;28;20204;-48
2023/04/03 03:26:09;;;;;;;0.90;0.70;;;21.00;71.50;;;;;;5011955;28;20192;-51
2023/04/03 03:28:37;;;;;;;1.00;0.80;;;21.00;71.50;;;;;;5013294;28;20581;-47
2023/04/03 03:31:05;;;;;;;1.00;0.70;;;21.00;71.50;;;;;;5018912;28;20722;-48
2023/04/03 03:33:33;;;;;;;1.00;0.90;;;21.00;71.50;;;;;;5010553;28;20559;-49
2023/04/03 03:36:01;;;;;;;1.25;0.80;;;21.00;71.50;;;;;;5020438;28;20239;-52
2023/04/03 03:38:27;;;;;;;0.98;0.80;;;21.00;71.50;;;;;;5018943;28;20200;-47
2023/04/03 03:40:54;;;;;;;0.90;0.70;;;21.00;71.50;;;;;;5014521;28;20711;-51
2023/04/03 03:43:21;;;;;;;1.20;0.70;;;21.00;71.50;;;;;;5016966;28;20208;-47
2023/04/03 03:45:52;;;;;;;0.80;0.68;;;21.00;71.50;;;;;;5028010;28;20450;-49
2023/04/03 03:48:19;;;;;;;0.95;0.68;;;21.00;71.60;;;;;;5018497;28;20641;-49
2023/04/03 03:50:47;;;;;;;1.38;0.90;;;21.00;71.60;;;;;;5015690;28;20684;-47
2023/04/03 03:53:14;;;;;;;1.70;0.70;;;21.00;71.60;;;;;;5010530;28;20193;-53
2023/04/03 03:55:41;;;;;;;1.10;0.75;;;21.00;71.60;;;;;;5013438;28;20661;-49
2023/04/03 03:58:08;;;;;;;1.00;0.70;;;21.00;71.70;;;;;;5009914;28;20197;-51
2023/04/03 04:00:35;;;;;;;0.90;0.80;;;21.00;71.60;;;;;;5021404;28;20212;-51
2023/04/03 04:03:01;;;;;;;0.93;0.77;;;21.00;71.60;;;;;;5028545;28;20203;-47
2023/04/03 04:05:28;;;;;;;0.90;0.80;;;21.00;71.60;;;;;;5018762;28;20573;-50
2023/04/03 04:07:56;;;;;;;0.90;0.70;;;21.00;71.60;;;;;;5023497;28;20668;-50
2023/04/03 04:10:23;;;;;;;1.00;0.70;;;21.00;71.70;;;;;;5021073;28;20286;-47
2023/04/03 04:12:51;;;;;;;1.65;1.00;;;21.00;71.70;;;;;;5013040;28;20197;-54
2023/04/03 04:15:17;;;;;;;1.10;0.80;;;21.00;71.70;;;;;;5025042;28;20228;-51
2023/04/03 04:17:44;;;;;;;1.00;0.80;;;21.00;71.70;;;;;;5028404;28;20627;-57
2023/04/03 04:20:12;;;;;;;1.00;0.70;;;21.00;71.70;;;;;;5018807;28;20197;-49
2023/04/03 04:22:38;;;;;;;0.80;0.68;;;20.90;71.60;;;;;;5022039;28;20212;-51
2023/04/03 04:25:07;;;;;;;1.13;0.80;;;20.90;71.70;;;;;;5012743;28;20197;-47
2023/04/03 04:27:34;;;;;;;0.90;0.70;;;20.90;71.60;;;;;;5012447;28;20275;-47
2023/04/03 04:30:01;;;;;;;0.93;0.75;;;20.90;71.70;;;;;;5022520;28;20262;-51
2023/04/03 04:32:27;;;;;;;1.00;0.80;;;20.90;71.60;;;;;;5014442;28;20262;-51
2023/04/03 04:34:54;;;;;;;0.90;0.70;;;20.90;71.70;;;;;;5022149;28;20200;-47
2023/04/03 04:37:21;;;;;;;1.30;0.80;;;20.90;71.70;;;;;;5014902;28;20550;-61
2023/04/03 04:39:48;;;;;;;1.02;0.70;;;20.90;71.70;;;;;;5022188;28;20253;-52
2023/04/03 04:42:16;;;;;;;1.05;0.75;;;20.90;71.70;;;;;;5016852;28;20302;-53
2023/04/03 04:44:43;;;;;;;1.40;0.70;;;20.90;71.70;;;;;;5014908;28;20204;-47
2023/04/03 04:47:10;;;;;;;1.17;0.85;;;20.90;71.60;;;;;;5027224;28;20195;-46
2023/04/03 04:49:37;;;;;;;0.90;0.70;;;20.90;71.70;;;;;;5018891;28;20237;-54
2023/04/03 04:52:03;;;;;;;0.90;0.73;;;20.90;71.70;;;;;;5015021;28;20216;-50
2023/04/03 04:54:30;;;;;;;1.00;0.65;;;20.90;71.70;;;;;;5022606;28;20196;-51
2023/04/03 04:56:57;;;;;;;0.90;0.65;;;20.90;71.70;;;;;;5029354;28;20199;-50
2023/04/03 04:59:25;;;;;;;1.25;0.85;;;20.90;71.80;;;;;;5029117;28;20192;-47
2023/04/03 05:01:52;;;;;;;0.80;0.60;;;20.90;71.80;;;;;;5033205;28;20223;-50
2023/04/03 05:04:19;;;;;;;1.08;0.70;;;20.90;71.80;;;;;;5028844;28;20254;-47
2023/04/03 05:06:45;;;;;;;1.30;0.80;;;20.90;71.80;;;;;;5022967;28;20614;-55
2023/04/03 05:09:12;;;;;;;2.30;0.75;;;20.90;71.70;;;;;;5027199;28;20192;-58
2023/04/03 05:11:39;;;;;;;0.98;0.70;;;20.90;71.80;;;;;;5017078;28;20216;-54
2023/04/03 05:14:06;;;;;;;1.63;0.95;;;20.90;71.70;;;;;;5022019;28;20204;-47
2023/04/03 05:16:34;;;;;;;0.80;0.60;;;20.90;71.80;;;;;;5032803;28;20285;-47
2023/04/03 05:19:01;;;;;;;1.77;0.85;;;20.90;71.70;;;;;;5017347;28;20201;-54
2023/04/03 05:21:31;;;;;;;0.90;0.60;;;20.90;71.80;;;;;;5020488;28;20201;-48
2023/04/03 05:23:58;;;;;;;1.25;0.70;;;20.90;71.80;;;;;;5013407;28;20649;-47
2023/04/03 05:26:25;;;;;;;1.05;0.70;;;20.90;71.90;;;;;;5018410;28;20247;-54
2023/04/03 05:28:52;;;;;;;1.10;0.80;;;20.90;71.90;;;;;;5013562;28;20292;-52
2023/04/03 05:31:18;;;;;;;1.00;0.82;;;20.90;71.90;;;;;;5013532;28;20628;-51
2023/04/03 05:33:46;;;;;;;1.00;0.70;;;20.90;71.80;;;;;;5021710;28;20557;-51
2023/04/03 05:36:14;;;;;;;0.90;0.70;;;21.00;72.00;;;;;;5024642;28;20254;-49
2023/04/03 05:38:41;;;;;;;1.00;0.70;;;21.00;72.00;;;;;;5016651;28;20201;-49
2023/04/03 05:41:07;;;;;;;0.90;0.70;;;21.00;72.00;;;;;;5025631;28;20196;-51
2023/04/03 05:43:34;;;;;;;0.90;0.65;;;21.00;72.00;;;;;;5021002;28;20208;-47
2023/04/03 05:46:01;;;;;;;0.90;0.70;;;21.00;71.90;;;;;;5017169;28;20807;-49
2023/04/03 05:48:27;;;;;;;0.85;0.63;;;21.00;71.90;;;;;;5019564;28;20200;-49
2023/04/03 05:50:55;;;;;;;0.90;0.65;;;21.00;71.90;;;;;;5029274;28;20228;-48
2023/04/03 05:53:27;;;;;;;0.98;0.68;;;21.00;71.90;;;;;;5018931;28;20587;-53
2023/04/03 05:55:54;;;;;;;1.00;0.70;;;21.00;71.90;;;;;;5019078;28;20201;-48
2023/04/03 05:58:20;;;;;;;1.10;0.77;;;20.90;71.80;;;;;;5023851;28;20234;-46
2023/04/03 06:00:47;;;;;;;0.90;0.70;;;20.90;71.80;;;;;;5021803;28;20691;-53
2023/04/03 06:03:14;;;;;;;0.80;0.60;;;20.90;71.80;;;;;;5012232;28;20251;-49
2023/04/03 06:05:41;;;;;;;1.02;0.70;;;20.90;71.80;;;;;;5014766;28;20207;-49
2023/04/03 06:08:09;;;;;;;0.90;0.65;;;21.00;72.00;;;;;;5024818;28;20262;-49
2023/04/03 06:10:36;;;;;;;1.42;0.70;;;21.00;72.00;;;;;;5020940;28;20307;-49
2023/04/03 06:13:03;;;;;;;0.80;0.60;;;21.00;72.00;;;;;;5022434;28;20200;-55
2023/04/03 06:15:30;;;;;;;0.90;0.70;;;21.00;72.00;;;;;;5017908;28;20251;-54
2023/04/03 06:17:57;;;;;;;1.00;0.80;;;21.00;72.00;;;;;;5015995;28;20196;-51
2023/04/03 06:20:23;;;;;;;1.15;0.70;;;21.10;72.00;;;;;;5029666;28;20277;-55
2023/04/03 06:22:50;;;;;;;1.80;0.80;;;21.10;72.00;;;;;;5023662;28;20458;-49
2023/04/03 06:25:19;;;;;;;1.00;0.70;;;21.10;71.90;;;;;;5015338;28;20534;-47
2023/04/03 06:27:46;;;;;;;1.38;0.85;;;21.10;71.90;;;;;;5015395;28;20207;-59
2023/04/03 06:30:13;;;;;;;2.20;0.70;;;21.20;72.00;;;;;;5020456;28;20201;-52
2023/04/03 06:32:40;;;;;;;0.90;0.70;;;21.20;71.90;;;;;;5019517;28;20204;-52
2023/04/03 06:35:08;;;;;;;0.95;0.70;;;21.20;71.90;;;;;;5011441;28;20196;-51
2023/04/03 06:37:35;;;;;;;1.00;0.70;;;21.20;71.90;;;;;;5021568;28;20193;-51
2023/04/03 06:40:02;;;;;;;0.80;0.57;;;21.20;71.90;;;;;;5027861;28;20193;-53
2023/04/03 06:42:30;;;;;;;0.90;0.60;;;21.30;72.00;;;;;;5023989;28;20211;-48
2023/04/03 06:44:57;;;;;;;0.90;0.75;;;21.30;72.00;;;;;;5020268;28;20200;-51
2023/04/03 06:47:24;;;;;;;1.00;0.73;;;21.30;72.00;;;;;;5023556;28;20247;-53
2023/04/03 06:49:51;;;;;;;1.00;0.70;;;21.30;71.90;;;;;;5015566;28;20286;-47
2023/04/03 06:52:17;;;;;;;1.10;0.70;;;21.30;72.10;;;;;;5015787;28;20673;-47
2023/04/03 06:54:44;;;;;;;1.23;0.70;;;21.30;72.00;;;;;;5023354;28;20550;-51
2023/04/03 06:57:11;;;;;;;1.25;0.73;;;21.40;71.90;;;;;;5011544;28;20193;-46
2023/04/03 06:59:40;;;;;;;1.02;0.80;;;21.40;71.80;;;;;;5028906;28;20211;-47
2023/04/03 07:02:07;;;;;;;1.00;0.70;;;21.40;71.60;;;;;;5018802;28;20224;-55
2023/04/03 07:04:33;;;;;;;0.95;0.75;;;21.40;71.50;;;;;;5014854;28;20657;-46
2023/04/03 07:07:00;;;;;;;1.45;0.88;;;21.40;71.40;;;;;;5011437;28;20247;-50
2023/04/03 07:09:27;;;;;;;0.80;0.63;;;21.40;71.10;;;;;;5027522;28;20204;-55
2023/04/03 07:11:54;;;;;;;1.17;0.83;;;21.50;71.20;;;;;;5015245;28;20635;-55
2023/04/03 07:14:21;;;;;;;1.20;0.93;;;21.50;71.10;;;;;;5025641;28;20890;-52
2023/04/03 07:16:49;;;;;;;1.15;0.70;;;21.50;71.10;;;;;;5021391;28;20452;-48
2023/04/03 07:19:17;;;;;;;1.23;1.00;;;21.50;71.00;;;;;;5028427;28;20196;-49
2023/04/03 07:21:44;;;;;;;1.10;0.80;;;21.50;70.90;;;;;;5018995;28;20479;-55
2023/04/03 07:24:11;;;;;;;3.13;0.83;;;21.50;70.80;;;;;;5013705;28;20968;-46
2023/04/03 07:26:37;;;;;;;1.63;0.80;;;21.60;71.10;;;;;;5022322;28;20462;-53
2023/04/03 07:29:04;;;;;;;2.80;1.07;;;21.60;70.90;;;;;;5019593;28;20463;-52
2023/04/03 07:31:31;;;;;;;1.63;0.98;;;21.60;70.80;;;;;;5015140;28;20479;-52
2023/04/03 07:33:59;;;;;;;9.77;0.95;;;21.50;68.90;;;;;;5024714;28;20616;-54
2023/04/03 07:36:26;;;;;;;1.63;1.00;;;21.50;69.40;;;;;;5021502;28;20200;-49
2023/04/03 07:38:52;;;;;;;4.00;1.00;;;21.60;70.10;;;;;;5018864;28;20483;-53
2023/04/03 07:41:22;;;;;;;3.03;0.90;;;21.60;69.90;;;;;;5014804;28;20463;-50
2023/04/03 07:43:49;;;;;;;2.03;0.95;;;21.60;69.80;;;;;;5018493;28;20292;-52
2023/04/03 07:46:17;;;;;;;1.55;1.00;;;21.60;69.80;;;;;;5024171;28;20211;-47
2023/04/03 07:48:44;;;;;;;1.95;1.00;;;21.60;69.80;;;;;;5014594;28;20193;-47
2023/04/03 07:51:13;;;;;;;2.37;0.97;;;21.60;69.70;;;;;;5014586;28;20292;-55
2023/04/03 07:53:39;;;;;;;0.90;0.70;;;21.60;69.60;;;;;;5016464;28;20498;-50
2023/04/03 07:56:07;;;;;;;3.85;0.95;;;21.60;69.70;;;;;;5016349;28;20212;-47
2023/04/03 07:58:33;;;;;;;2.10;1.17;;;21.70;69.80;;;;;;5016049;28;20311;-52
2023/04/03 08:01:00;;;;;;;1.30;0.80;;;21.70;69.80;;;;;;5010612;28;20466;-48
2023/04/03 08:03:27;;;;;;;1.03;0.87;;;21.70;69.80;;;;;;5010124;28;20944;-52
2023/04/03 08:05:54;;;;;;;1.27;0.80;;;21.70;69.80;;;;;;5022308;28;20439;-48
2023/04/03 08:08:24;;;;;;;2.37;1.10;;;21.70;69.80;;;;;;5010122;28;20487;-53
2023/04/03 08:10:52;;;;;;;2.00;1.03;;;21.70;69.70;;;;;;5017942;28;21006;-56
2023/04/03 08:13:19;;;;;;;1.42;0.90;;;21.70;69.70;;;;;;5018092;28;20471;-47
2023/04/03 08:15:46;;;;;;;1.33;0.80;;;21.70;69.60;;;;;;5015317;28;20287;-52
2023/04/03 08:18:13;;;;;;;2.70;0.80;;;21.70;69.50;;;;;;5015763;28;20509;-58
2023/04/03 08:20:40;;;;;;;3.33;0.90;;;21.70;69.50;;;;;;5018440;28;20451;-52
2023/04/03 08:23:07;;;;;;;1.47;0.77;;;21.70;69.40;;;;;;5015686;28;20601;-50
2023/04/03 08:25:38;;;;;;;2.10;0.80;;;21.70;69.30;;;;;;5017314;28;20444;-51
2023/04/03 08:28:05;;;;;;;2.00;1.67;;;21.70;69.30;;;;;;5021075;28;20508;-58
2023/04/03 08:30:32;;;;;;;1.10;0.90;;;21.70;69.40;;;;;;5018743;28;20494;-50
2023/04/03 08:33:00;;;;;;;1.10;0.87;;;21.70;69.30;;;;;;5015295;28;20216;-47
2023/04/03 08:35:27;;;;;;;0.90;0.70;;;21.80;69.40;;;;;;5008767;28;20451;-58
2023/04/03 08:37:54;;;;;;;1.03;0.90;;;21.70;68.70;;;;;;5016038;28;20510;-56
2023/04/03 08:40:21;;;;;;;1.93;0.90;;;21.70;67.90;;;;;;5014913;28;20470;-56
2023/04/03 08:42:58;;;;;;;1.50;0.80;;;21.70;68.20;;;;;;5018271;28;20555;-60
2023/04/03 08:45:35;;;;;;;1.00;0.80;;;21.70;68.20;;;;;;5017185;28;20467;-59
2023/04/03 08:48:07;;;;;;;2.43;0.90;;;21.80;68.50;;;;;;5020886;28;20581;-55
2023/04/03 08:50:40;;;;;;;1.60;1.00;;;21.80;68.60;;;;;;5020241;28;20468;-57
2023/04/03 08:53:12;;;;;;;1.20;0.80;;;21.80;68.70;;;;;;5022035;28;20479;-52
2023/04/03 08:55:44;;;;;;;1.43;0.80;;;21.80;68.70;;;;;;5016129;28;20452;-54
2023/04/03 08:58:15;;;;;;;3.93;0.90;;;21.90;68.90;;;;;;5013141;28;20452;-50
2023/04/03 09:00:46;;;;;;;1.77;0.87;;;21.90;69.00;;;;;;5019088;28;20435;-55
2023/04/03 09:03:14;;;;;;;1.90;1.00;;;21.90;69.20;;;;;;5016797;28;20494;-49
2023/04/03 09:05:47;;;;;;;1.47;0.90;;;21.90;69.20;;;;;;5017038;28;20459;-54
2023/04/03 09:08:23;;;;;;;1.40;1.03;;;22.00;69.30;;;;;;5018083;28;20459;-53
2023/04/03 09:10:52;;;;;;;1.20;0.90;;;22.00;69.30;;;;;;5015664;28;20455;-58
2023/04/03 09:13:31;;;;;;;5.53;0.90;;;22.00;69.30;;;;;;5020679;28;20541;-63
2023/04/03 09:15:58;;;;;;;1.67;1.00;;;22.00;69.30;;;;;;5017772;28;20447;-57
2023/04/03 09:18:31;;;;;;;1.40;0.80;;;22.00;69.30;;;;;;5013400;28;20982;-60
2023/04/03 09:21:07;;;;;;;1.63;1.10;;;22.10;69.40;;;;;;5013481;28;20538;-56
2023/04/03 09:23:42;;;;;;;1.00;0.70;;;22.10;69.50;;;;;;5012051;28;20483;-59
2023/04/03 09:26:15;;;;;;;2.60;1.30;;;22.10;69.40;;;;;;5019615;28;20478;-53
2023/04/03 09:28:44;;;;;;;0.93;0.73;;;22.10;69.30;;;;;;5024312;28;20491;-51
2023/04/03 09:31:20;;;;;;;0.87;0.70;;;22.10;69.50;;;;;;5014660;28;20448;-49
2023/04/03 09:33:49;;;;;;;0.90;0.70;;;22.10;69.40;;;;;;5023987;28;21015;-47
2023/04/03 09:36:41;;;;;;;1.33;1.00;;;22.10;69.40;;;;;;5028189;28;20470;-55
2023/04/03 09:39:12;;;;;;;1.80;0.83;;;22.20;69.50;;;;;;5022367;28;20518;-52
2023/04/03 09:41:39;;;;;;;2.27;1.10;;;22.20;69.60;;;;;;5022604;28;20458;-52
2023/04/03 09:44:22;;;;;;;0.90;0.70;;;22.20;69.60;;;;;;5017650;28;20478;-55
2023/04/03 09:46:49;;;;;;;2.10;0.93;;;22.20;69.60;;;;;;5014623;28;20446;-53
2023/04/03 09:49:15;;;;;;;1.73;0.80;;;22.20;69.60;;;;;;5015090;28;20466;-57
2023/04/03 09:51:45;;;;;;;1.73;0.70;;;22.20;69.50;;;;;;5015683;28;20491;-49
2023/04/03 09:54:35;;;;;;;2.60;0.90;;;22.20;69.60;;;;;;5025270;28;20663;-48
2023/04/03 09:57:06;;;;;;;1.60;0.90;;;22.20;69.40;;;;;;5016734;28;20536;-53
2023/04/03 09:59:33;;;;;;;1.00;0.80;;;22.20;69.50;;;;;;5029752;28;20516;-47
2023/04/03 10:02:02;;;;;;;1.20;0.80;;;22.30;69.70;;;;;;5020259;28;20513;-50
2023/04/03 10:04:39;;;;;;;1.10;0.80;;;22.30;69.60;;;;;;5016197;28;20486;-49
2023/04/03 10:07:28;;;;;;;1.10;0.80;;;22.30;69.50;;;;;;5018000;28;20911;-54
2023/04/03 10:09:57;;;;;;;0.90;0.70;;;22.40;69.60;;;;;;5021466;28;20494;-53
2023/04/03 10:12:23;;;;;;;1.20;0.70;;;22.40;69.60;;;;;;5018166;28;20474;-63
2023/04/03 10:14:56;;;;;;;2.00;0.80;;;22.40;69.60;;;;;;5018594;28;20486;-62
2023/04/03 10:17:37;;;;;;;1.13;0.90;;;22.40;69.50;;;;;;5018320;28;20554;-58
2023/04/03 10:20:11;;;;;;;1.87;0.83;;;22.40;69.60;;;;;;5027367;28;20846;-57
2023/04/03 10:22:47;;;;;;;1.47;0.90;;;22.40;69.60;;;;;;5014195;28;20495;-64
2023/04/03 10:25:23;;;;;;;1.30;0.80;;;22.50;69.60;;;;;;5017701;28;20452;-68
2023/04/03 10:27:57;;;;;;;2.57;0.80;;;22.50;69.50;;;;;;5022191;28;20463;-59
2023/04/03 10:30:49;;;;;;;1.10;0.80;;;22.50;69.40;;;;;;5013001;28;20990;-60
2023/04/03 10:33:28;;;;;;;1.10;0.80;;;22.50;69.30;;;;;;5013755;28;20552;-48
2023/04/03 10:36:11;;;;;;;1.50;0.70;;;22.50;69.40;;;;;;5022366;28;20522;-49
2023/04/03 10:38:49;;;;;;;1.00;0.90;;;22.60;69.40;;;;;;5018418;28;20454;-47
2023/04/03 10:41:24;;;;;;;1.93;0.80;;;22.50;69.30;;;;;;5016822;28;20455;-49
2023/04/03 10:43:59;;;;;;;3.47;1.00;;;22.60;69.40;;;;;;5013502;28;21005;-55
2023/04/03 10:46:33;;;;;;;1.10;0.80;;;22.60;69.30;;;;;;5025676;28;20462;-58
2023/04/03 10:49:12;;;;;;;1.00;0.80;;;22.50;69.30;;;;;;5024053;28;21004;-61
2023/04/03 10:51:44;;;;;;;2.20;0.93;;;22.50;69.20;;;;;;5024195;28;20455;-61
2023/04/03 10:54:21;;;;;;;1.47;0.90;;;22.60;69.30;;;;;;5014858;28;20852;-60
2023/04/03 10:56:51;;;;;;;1.57;0.80;;;22.60;69.30;;;;;;5017065;28;20978;-56
2023/04/03 10:59:24;;;;;;;1.30;0.70;;;22.60;69.30;;;;;;5018771;28;20467;-57
2023/04/03 11:01:55;;;;;;;1.13;0.93;;;22.60;69.40;;;;;;5014416;28;20451;-58
2023/04/03 11:04:26;;;;;;;0.90;0.60;;;22.60;69.20;;;;;;5011812;28;20463;-47
2023/04/03 11:06:58;;;;;;;0.90;0.70;;;22.60;69.20;;;;;;5023347;28;20498;-50
2023/04/03 11:09:31;;;;;;;1.13;0.80;;;22.60;69.20;;;;;;5024966;28;20447;-57
2023/04/03 11:12:04;;;;;;;1.03;0.73;;;22.60;69.10;;;;;;5013541;28;20566;-58
2023/04/03 11:14:34;;;;;;;1.87;1.57;;;22.60;69.00;;;;;;5010869;28;20464;-68
2023/04/03 11:17:08;;;;;;;2.20;0.73;;;22.60;69.00;;;;;;5016050;28;20454;-62
2023/04/03 11:19:39;;;;;;;1.30;0.80;;;22.60;69.00;;;;;;5016112;28;20468;-63
2023/04/03 11:22:14;;;;;;;1.20;0.70;;;22.60;69.00;;;;;;5021935;28;21042;-50
2023/04/03 11:24:48;;;;;;;0.90;0.60;;;22.60;69.00;;;;;;5021467;28;21057;-54
2023/04/03 11:27:22;;;;;;;0.93;0.70;;;22.60;68.80;;;;;;5018419;28;20553;-50
2023/04/03 11:29:52;;;;;;;1.00;0.70;;;22.60;69.00;;;;;;5016562;28;20472;-55
2023/04/03 11:32:35;;;;;;;2.03;1.03;;;22.60;68.80;;;;;;5029554;28;20890;-52
2023/04/03 11:35:05;;;;;;;1.20;1.03;;;22.60;68.80;;;;;;5024866;28;20539;-51
2023/04/03 11:37:36;;;;;;;3.83;0.70;;;22.60;68.80;;;;;;5015331;28;20468;-54
2023/04/03 11:40:08;;;;;;;1.50;0.70;;;22.60;68.70;;;;;;5018328;28;20464;-58
2023/04/03 11:42:38;;;;;;;1.00;0.80;;;22.60;68.60;;;;;;5015822;28;20470;-49
2023/04/03 11:45:39;;;;;;;1.00;0.60;;;22.60;68.70;;;;;;5015139;28;20896;-61
2023/04/03 11:48:24;;;;;;;1.23;0.80;;;22.60;68.50;;;;;;5013876;28;20962;-56
2023/04/03 11:50:51;;;;;;;0.83;0.60;;;22.60;68.70;;;;;;5018707;28;20466;-51
2023/04/03 11:53:32;;;;;;;1.10;0.73;;;22.60;68.40;;;;;;5026978;28;20490;-56
2023/04/03 11:56:02;;;;;;;1.23;0.87;;;22.60;69.20;;;;;;5028338;28;20530;-56
2023/04/03 11:58:31;;;;;;;1.17;0.80;;;22.60;68.30;;;;;;5012548;28;20462;-54
2023/04/03 12:01:09;;;;;;;1.67;1.37;;;22.60;68.30;;;;;;5021023;28;20524;-51
2023/04/03 12:03:59;;;;;;;1.20;0.80;;;22.70;68.40;;;;;;5014069;28;20501;-49
2023/04/03 12:06:54;;;;;;;2.07;0.80;;;22.70;68.30;;;;;;5011890;28;20514;-49
2023/04/03 12:09:27;;;;;;;0.93;0.77;;;22.70;68.10;;;;;;5028244;28;20534;-56
2023/04/03 12:11:57;;;;;;;0.90;0.60;;;22.70;68.50;;;;;;5025303;28;20452;-52
2023/04/03 12:14:26;;;;;;;0.90;0.70;;;22.70;68.40;;;;;;5023134;28;20462;-50
2023/04/03 12:16:54;;;;;;;1.53;0.70;;;22.70;68.40;;;;;;5017768;28;20460;-59
2023/04/03 12:19:40;;;;;;;2.90;0.80;;;22.70;68.30;;;;;;5022019;28;20954;-46
2023/04/03 12:22:15;;;;;;;0.93;0.67;;;22.70;68.20;;;;;;5017636;28;20471;-49
2023/04/03 12:24:43;;;;;;;0.90;0.70;;;22.70;68.40;;;;;;5019294;28;20447;-52
2023/04/03 12:27:39;;;;;;;1.60;0.73;;;22.70;68.30;;;;;;5025131;28;20823;-52
2023/04/03 12:30:14;;;;;;;1.33;0.60;;;22.70;68.20;;;;;;5016535;28;20972;-53
2023/04/03 12:33:12;;;;;;;1.27;0.70;;;22.70;68.30;;;;;;5018167;28;20572;-54
2023/04/03 12:35:44;;;;;;;1.20;0.77;;;22.80;68.10;;;;;;5008960;28;20480;-54
2023/04/03 12:38:24;;;;;;;1.17;0.60;;;22.70;68.10;;;;;;5014030;28;20872;-56
2023/04/03 12:40:56;;;;;;;1.10;0.70;;;22.70;68.10;;;;;;5028340;28;20450;-61
2023/04/03 12:43:40;;;;;;;1.60;0.70;;;22.80;68.40;;;;;;5014150;28;20475;-63
2023/04/03 12:46:16;;;;;;;0.93;0.73;;;22.80;69.00;;;;;;5011734;28;20459;-55
2023/04/03 12:48:49;;;;;;;1.10;0.70;;;22.70;68.10;;;;;;5026360;28;20970;-54
2023/04/03 12:51:19;;;;;;;1.10;0.73;;;22.80;68.20;;;;;;5018778;28;20451;-53
2023/04/03 12:53:47;;;;;;;1.10;0.70;;;22.70;67.80;;;;;;5014157;28;20529;-51
2023/04/03 12:56:23;;;;;;;1.17;0.83;;;22.60;67.70;;;;;;5018590;28;20569;-55
2023/04/03 12:58:52;;;;;;;0.90;0.70;;;22.60;68.00;;;;;;5017214;28;20454;-56
2023/04/03 13:01:22;;;;;;;1.70;0.90;;;22.50;68.10;;;;;;5023524;28;21032;-50